sensor_id;sensor_type;location;lat;lon;timestamp;pressure;altitude;pressure_sealevel;temperature;humidity
13422;BME280;6782;55.904;13.396;2024-03-22T00:01:30;101218.53;;;7.00;100.00
13422;BME280;6782;55.904;13.396;2024-03-22T00:04:16;101198.44;;;6.98;100.00
13422;BME280;6782;55.904;13.396;2024-03-22T00:07:04;101186.22;;;6.87;100.00
13422;BME280;6782;55.904;13.396;2024-03-22T00:09:52;101166.09;;;6.92;100.00
13422;BME280;6782;55.904;13.396;2024-03-22T00:12:39;101153.88;;;6.91;100.00
13422;BME280;6782;55.904;13.396;2024-03-22T00:15:25;101132.91;;;6.90;100.00
13422;BME280;6782;55.904;13.396;2024-03-22T00:18:13;101120.66;;;6.89;100.00
13422;BME280;6782;55.904;13.396;2024-03-22T00:20:59;101108.44;;;6.83;100.00
13422;BME280;6782;55.904;13.396;2024-03-22T00:23:47;101095.31;;;6.89;100.00
13422;BME280;6782;55.904;13.396;2024-03-22T00:26:35;101098.84;;;6.85;100.00
13422;BME280;6782;55.904;13.396;2024-03-22T00:29:22;101096.19;;;6.84;100.00
13422;BME280;6782;55.904;13.396;2024-03-22T00:32:09;101069.16;;;6.74;100.00
13422;BME280;6782;55.904;13.396;2024-03-22T00:34:56;101065.63;;;6.75;100.00
13422;BME280;6782;55.904;13.396;2024-03-22T00:37:42;101051.66;;;6.79;100.00
13422;BME280;6782;55.904;13.396;2024-03-22T00:40:29;101038.56;;;6.75;100.00
13422;BME280;6782;55.904;13.396;2024-03-22T00:43:17;101040.31;;;6.74;100.00
13422;BME280;6782;55.904;13.396;2024-03-22T00:46:04;101031.59;;;6.69;100.00
13422;BME280;6782;55.904;13.396;2024-03-22T00:48:50;101025.50;;;6.64;100.00
13422;BME280;6782;55.904;13.396;2024-03-22T00:51:37;101019.38;;;6.67;100.00
13422;BME280;6782;55.904;13.396;2024-03-22T00:54:23;101018.50;;;6.72;100.00
13422;BME280;6782;55.904;13.396;2024-03-22T00:57:10;101014.13;;;6.74;100.00
13422;BME280;6782;55.904;13.396;2024-03-22T00:59:58;101020.25;;;6.67;100.00
13422;BME280;6782;55.904;13.396;2024-03-22T01:02:45;101005.41;;;6.63;100.00
13422;BME280;6782;55.904;13.396;2024-03-22T01:05:31;101004.53;;;6.58;100.00
13422;BME280;6782;55.904;13.396;2024-03-22T01:08:18;101000.16;;;6.72;100.00
13422;BME280;6782;55.904;13.396;2024-03-22T01:11:05;100985.31;;;6.65;100.00
13422;BME280;6782;55.904;13.396;2024-03-22T01:13:51;100992.28;;;6.66;100.00
13422;BME280;6782;55.904;13.396;2024-03-22T01:16:40;100992.25;;;6.78;100.00
13422;BME280;6782;55.904;13.396;2024-03-22T01:19:28;100977.44;;;6.70;100.00
13422;BME280;6782;55.904;13.396;2024-03-22T01:22:17;100987.03;;;6.72;100.00
13422;BME280;6782;55.904;13.396;2024-03-22T01:25:04;100969.63;;;6.59;100.00
13422;BME280;6782;55.904;13.396;2024-03-22T01:27:51;100987.94;;;6.67;100.00
13422;BME280;6782;55.904;13.396;2024-03-22T01:30:38;100990.50;;;6.76;100.00
13422;BME280;6782;55.904;13.396;2024-03-22T01:33:27;100980.06;;;6.67;100.00
13422;BME280;6782;55.904;13.396;2024-03-22T01:36:13;100972.19;;;6.71;100.00
13422;BME280;6782;55.904;13.396;2024-03-22T01:39:00;100980.09;;;6.59;100.00
13422;BME280;6782;55.904;13.396;2024-03-22T01:41:46;100975.75;;;6.57;100.00
13422;BME280;6782;55.904;13.396;2024-03-22T01:44:33;100983.56;;;6.61;100.00
13422;BME280;6782;55.904;13.396;2024-03-22T01:47:19;101000.16;;;6.60;100.00
13422;BME280;6782;55.904;13.396;2024-03-22T01:50:09;101008.03;;;6.60;100.00
13422;BME280;6782;55.904;13.396;2024-03-22T01:52:57;101008.06;;;6.54;100.00
13422;BME280;6782;55.904;13.396;2024-03-22T01:55:45;101029.03;;;6.51;100.00
13422;BME280;6782;55.904;13.396;2024-03-22T01:58:31;101036.03;;;6.52;100.00
13422;BME280;6782;55.904;13.396;2024-03-22T02:01:18;101044.75;;;6.54;100.00
13422;BME280;6782;55.904;13.396;2024-03-22T02:04:05;101053.47;;;6.56;100.00
13422;BME280;6782;55.904;13.396;2024-03-22T02:06:54;101060.44;;;6.60;100.00
13422;BME280;6782;55.904;13.396;2024-03-22T02:09:40;101065.69;;;6.65;100.00
13422;BME280;6782;55.904;13.396;2024-03-22T02:12:27;101073.53;;;6.68;100.00
13422;BME280;6782;55.904;13.396;2024-03-22T02:15:14;101078.78;;;6.69;100.00
13422;BME280;6782;55.904;13.396;2024-03-22T02:18:01;101084.03;;;6.69;100.00
13422;BME280;6782;55.904;13.396;2024-03-22T02:20:47;101090.97;;;6.76;100.00
13422;BME280;6782;55.904;13.396;2024-03-22T02:23:37;101091.84;;;6.78;100.00
13422;BME280;6782;55.904;13.396;2024-03-22T02:26:24;101092.75;;;6.71;100.00
13422;BME280;6782;55.904;13.396;2024-03-22T02:29:11;101093.59;;;6.76;100.00
13422;BME280;6782;55.904;13.396;2024-03-22T02:31:57;101090.13;;;6.74;100.00
13422;BME280;6782;55.904;13.396;2024-03-22T02:34:45;101108.44;;;6.89;100.00
13422;BME280;6782;55.904;13.396;2024-03-22T02:37:31;101114.53;;;6.91;100.00
13422;BME280;6782;55.904;13.396;2024-03-22T02:40:20;101100.59;;;6.80;100.00
13422;BME280;6782;55.904;13.396;2024-03-22T02:43:06;101113.69;;;6.88;100.00
13422;BME280;6782;55.904;13.396;2024-03-22T02:45:53;101128.50;;;6.93;100.00
13422;BME280;6782;55.904;13.396;2024-03-22T02:48:40;101130.25;;;6.94;100.00
13422;BME280;6782;55.904;13.396;2024-03-22T02:51:27;101138.13;;;7.01;100.00
13422;BME280;6782;55.904;13.396;2024-03-22T02:54:14;101131.97;;;7.05;100.00
13422;BME280;6782;55.904;13.396;2024-03-22T02:57:03;101132.00;;;6.99;100.00
13422;BME280;6782;55.904;13.396;2024-03-22T02:59:49;101142.47;;;7.02;100.00
13422;BME280;6782;55.904;13.396;2024-03-22T03:02:36;101131.97;;;7.05;100.00
13422;BME280;6782;55.904;13.396;2024-03-22T03:05:22;101131.97;;;7.08;100.00
13422;BME280;6782;55.904;13.396;2024-03-22T03:08:10;101144.19;;;7.12;100.00
13422;BME280;6782;55.904;13.396;2024-03-22T03:10:57;101136.31;;;7.12;100.00
13422;BME280;6782;55.904;13.396;2024-03-22T03:13:45;101137.22;;;7.14;100.00
13422;BME280;6782;55.904;13.396;2024-03-22T03:16:32;101152.06;;;7.16;100.00
13422;BME280;6782;55.904;13.396;2024-03-22T03:19:19;101144.19;;;7.15;100.00
13422;BME280;6782;55.904;13.396;2024-03-22T03:22:06;101156.44;;;7.13;100.00
13422;BME280;6782;55.904;13.396;2024-03-22T03:24:53;101164.28;;;7.14;100.00
13422;BME280;6782;55.904;13.396;2024-03-22T03:27:40;101176.56;;;7.14;100.00
13422;BME280;6782;55.904;13.396;2024-03-22T03:30:29;101183.53;;;7.16;100.00
13422;BME280;6782;55.904;13.396;2024-03-22T03:33:15;101183.53;;;7.18;100.00
13422;BME280;6782;55.904;13.396;2024-03-22T03:36:03;101180.91;;;7.18;100.00
13422;BME280;6782;55.904;13.396;2024-03-22T03:38:49;101179.16;;;7.17;100.00
13422;BME280;6782;55.904;13.396;2024-03-22T03:41:37;101184.38;;;7.23;100.00
13422;BME280;6782;55.904;13.396;2024-03-22T03:44:23;101186.16;;;7.24;100.00
13422;BME280;6782;55.904;13.396;2024-03-22T03:47:12;101194.84;;;7.27;100.00
13422;BME280;6782;55.904;13.396;2024-03-22T03:49:58;101173.00;;;7.22;100.00
13422;BME280;6782;55.904;13.396;2024-03-22T03:52:45;101177.38;;;7.34;100.00
13422;BME280;6782;55.904;13.396;2024-03-22T03:55:31;101182.63;;;7.25;100.00
13422;BME280;6782;55.904;13.396;2024-03-22T03:58:19;101179.13;;;7.26;100.00
13422;BME280;6782;55.904;13.396;2024-03-22T04:01:06;101201.84;;;7.33;100.00
13422;BME280;6782;55.904;13.396;2024-03-22T04:03:55;101203.59;;;7.34;100.00
13422;BME280;6782;55.904;13.396;2024-03-22T04:06:41;101214.09;;;7.37;100.00
13422;BME280;6782;55.904;13.396;2024-03-22T04:09:30;101198.34;;;7.37;100.00
13422;BME280;6782;55.904;13.396;2024-03-22T04:12:17;101200.97;;;7.37;100.00
13422;BME280;6782;55.904;13.396;2024-03-22T04:15:05;101211.44;;;7.40;100.00
13422;BME280;6782;55.904;13.396;2024-03-22T04:17:51;101209.72;;;7.39;100.00
13422;BME280;6782;55.904;13.396;2024-03-22T04:20:40;101208.81;;;7.40;100.00
13422;BME280;6782;55.904;13.396;2024-03-22T04:23:26;101209.72;;;7.42;100.00
13422;BME280;6782;55.904;13.396;2024-03-22T04:26:15;101216.69;;;7.46;100.00
13422;BME280;6782;55.904;13.396;2024-03-22T04:29:01;101190.47;;;7.37;100.00
13422;BME280;6782;55.904;13.396;2024-03-22T04:31:48;101215.81;;;7.41;100.00
13422;BME280;6782;55.904;13.396;2024-03-22T04:34:34;101220.22;;;7.39;100.00
13422;BME280;6782;55.904;13.396;2024-03-22T04:37:23;101207.97;;;7.39;100.00
13422;BME280;6782;55.904;13.396;2024-03-22T04:40:12;101222.84;;;7.39;100.00
13422;BME280;6782;55.904;13.396;2024-03-22T04:42:59;101226.31;;;7.35;100.00
13422;BME280;6782;55.904;13.396;2024-03-22T04:45:46;101217.59;;;7.33;100.00
13422;BME280;6782;55.904;13.396;2024-03-22T04:48:34;101228.94;;;7.35;100.00
13422;BME280;6782;55.904;13.396;2024-03-22T04:51:20;101230.72;;;7.31;100.00
13422;BME280;6782;55.904;13.396;2024-03-22T04:54:10;101234.19;;;7.35;100.00
13422;BME280;6782;55.904;13.396;2024-03-22T04:56:56;101240.34;;;7.31;100.00
13422;BME280;6782;55.904;13.396;2024-03-22T04:59:43;101248.19;;;7.35;100.00
13422;BME280;6782;55.904;13.396;2024-03-22T05:02:29;101237.69;;;7.38;100.00
13422;BME280;6782;55.904;13.396;2024-03-22T05:05:16;101245.59;;;7.34;100.00
13422;BME280;6782;55.904;13.396;2024-03-22T05:08:03;101252.56;;;7.44;100.00
13422;BME280;6782;55.904;13.396;2024-03-22T05:10:55;101248.19;;;7.41;100.00
13422;BME280;6782;55.904;13.396;2024-03-22T05:13:41;101240.31;;;7.40;100.00
13422;BME280;6782;55.904;13.396;2024-03-22T05:16:28;101249.06;;;7.42;100.00
13422;BME280;6782;55.904;13.396;2024-03-22T05:19:14;101267.41;;;7.43;100.00
13422;BME280;6782;55.904;13.396;2024-03-22T05:22:01;101277.03;;;7.46;100.00
13422;BME280;6782;55.904;13.396;2024-03-22T05:24:48;101268.28;;;7.42;100.00
13422;BME280;6782;55.904;13.396;2024-03-22T05:27:36;101264.78;;;7.45;100.00
13422;BME280;6782;55.904;13.396;2024-03-22T05:30:23;101256.03;;;7.43;100.00
13422;BME280;6782;55.904;13.396;2024-03-22T05:33:09;101270.91;;;7.54;100.00
13422;BME280;6782;55.904;13.396;2024-03-22T05:35:56;101271.78;;;7.46;100.00
13422;BME280;6782;55.904;13.396;2024-03-22T05:38:43;101263.06;;;7.41;100.00
13422;BME280;6782;55.904;13.396;2024-03-22T05:41:30;101270.06;;;7.39;100.00
13422;BME280;6782;55.904;13.396;2024-03-22T05:44:18;101276.16;;;7.45;100.00
13422;BME280;6782;55.904;13.396;2024-03-22T05:47:05;101274.41;;;7.40;100.00
13422;BME280;6782;55.904;13.396;2024-03-22T05:49:51;101291.88;;;7.53;100.00
13422;BME280;6782;55.904;13.396;2024-03-22T05:52:39;101287.53;;;7.52;100.00
13422;BME280;6782;55.904;13.396;2024-03-22T05:55:25;101292.75;;;7.50;100.00
13422;BME280;6782;55.904;13.396;2024-03-22T05:58:16;101292.78;;;7.52;100.00
13422;BME280;6782;55.904;13.396;2024-03-22T06:01:04;101300.63;;;7.55;100.00
13422;BME280;6782;55.904;13.396;2024-03-22T06:03:51;101298.00;;;7.50;100.00
13422;BME280;6782;55.904;13.396;2024-03-22T06:06:39;101299.75;;;7.53;100.00
13422;BME280;6782;55.904;13.396;2024-03-22T06:09:25;101292.78;;;7.52;100.00
13422;BME280;6782;55.904;13.396;2024-03-22T06:12:20;101301.50;;;7.54;100.00
13422;BME280;6782;55.904;13.396;2024-03-22T06:15:08;101312.00;;;7.57;100.00
13422;BME280;6782;55.904;13.396;2024-03-22T06:17:57;101308.50;;;7.55;100.00
13422;BME280;6782;55.904;13.396;2024-03-22T06:20:44;101308.50;;;7.58;100.00
13422;BME280;6782;55.904;13.396;2024-03-22T06:23:30;101315.50;;;7.56;100.00
13422;BME280;6782;55.904;13.396;2024-03-22T06:26:17;101312.88;;;7.62;100.00
13422;BME280;6782;55.904;13.396;2024-03-22T06:29:04;101315.47;;;7.57;100.00
13422;BME280;6782;55.904;13.396;2024-03-22T06:31:51;101308.50;;;7.58;100.00
13422;BME280;6782;55.904;13.396;2024-03-22T06:34:39;101312.00;;;7.57;100.00
13422;BME280;6782;55.904;13.396;2024-03-22T06:37:27;101329.50;;;7.60;100.00
13422;BME280;6782;55.904;13.396;2024-03-22T06:40:13;101312.91;;;7.54;100.00
13422;BME280;6782;55.904;13.396;2024-03-22T06:43:00;101321.63;;;7.55;100.00
13422;BME280;6782;55.904;13.396;2024-03-22T06:45:46;101323.38;;;7.56;100.00
13422;BME280;6782;55.904;13.396;2024-03-22T06:48:33;101317.25;;;7.57;100.00
13422;BME280;6782;55.904;13.396;2024-03-22T06:51:21;101333.88;;;7.65;100.00
13422;BME280;6782;55.904;13.396;2024-03-22T06:54:09;101325.13;;;7.65;100.00
13422;BME280;6782;55.904;13.396;2024-03-22T06:56:55;101327.72;;;7.66;100.00
13422;BME280;6782;55.904;13.396;2024-03-22T06:59:42;101326.84;;;7.66;99.64
13422;BME280;6782;55.904;13.396;2024-03-22T07:02:28;101338.22;;;7.69;98.66
13422;BME280;6782;55.904;13.396;2024-03-22T07:05:15;101342.59;;;7.69;98.02
13422;BME280;6782;55.904;13.396;2024-03-22T07:08:04;101346.97;;;7.68;97.54
13422;BME280;6782;55.904;13.396;2024-03-22T07:10:51;101353.97;;;7.77;96.09
13422;BME280;6782;55.904;13.396;2024-03-22T07:13:38;101356.59;;;7.72;96.25
13422;BME280;6782;55.904;13.396;2024-03-22T07:16:26;101352.22;;;7.74;95.83
13422;BME280;6782;55.904;13.396;2024-03-22T07:19:12;101353.97;;;7.77;95.88
13422;BME280;6782;55.904;13.396;2024-03-22T07:22:00;101353.06;;;7.82;94.81
13422;BME280;6782;55.904;13.396;2024-03-22T07:24:49;101353.94;;;7.78;94.51
13422;BME280;6782;55.904;13.396;2024-03-22T07:27:37;101359.22;;;7.83;94.02
13422;BME280;6782;55.904;13.396;2024-03-22T07:30:23;101356.53;;;7.86;93.29
13422;BME280;6782;55.904;13.396;2024-03-22T07:33:11;101368.84;;;7.85;92.91
13422;BME280;6782;55.904;13.396;2024-03-22T07:36:02;101372.31;;;7.92;92.02
13422;BME280;6782;55.904;13.396;2024-03-22T07:38:48;101362.69;;;7.86;93.96
13422;BME280;6782;55.904;13.396;2024-03-22T07:41:37;101374.06;;;7.93;93.16
13422;BME280;6782;55.904;13.396;2024-03-22T07:44:23;101381.00;;;8.07;91.47
13422;BME280;6782;55.904;13.396;2024-03-22T07:47:12;101380.16;;;8.05;91.14
13422;BME280;6782;55.904;13.396;2024-03-22T07:49:58;101388.88;;;8.09;90.63
13422;BME280;6782;55.904;13.396;2024-03-22T07:52:45;101389.78;;;8.08;90.71
13422;BME280;6782;55.904;13.396;2024-03-22T07:55:32;101388.91;;;8.07;90.52
13422;BME280;6782;55.904;13.396;2024-03-22T07:58:22;101383.59;;;8.19;89.65
13422;BME280;6782;55.904;13.396;2024-03-22T08:01:09;101387.13;;;8.18;89.48
13422;BME280;6782;55.904;13.396;2024-03-22T08:03:55;101394.13;;;8.29;88.47
13422;BME280;6782;55.904;13.396;2024-03-22T08:06:42;101387.09;;;8.34;87.89
13422;BME280;6782;55.904;13.396;2024-03-22T08:09:29;101381.84;;;8.31;88.30
13422;BME280;6782;55.904;13.396;2024-03-22T08:12:16;101383.56;;;8.39;87.48
13422;BME280;6782;55.904;13.396;2024-03-22T08:15:07;101376.56;;;8.25;88.57
13422;BME280;6782;55.904;13.396;2024-03-22T08:17:55;101378.34;;;8.32;88.03
13422;BME280;6782;55.904;13.396;2024-03-22T08:20:43;101392.31;;;8.40;87.07
13422;BME280;6782;55.904;13.396;2024-03-22T08:23:29;101381.78;;;8.43;87.03
13422;BME280;6782;55.904;13.396;2024-03-22T08:26:17;101386.16;;;8.44;86.67
13422;BME280;6782;55.904;13.396;2024-03-22T08:29:03;101381.78;;;8.46;86.40
13422;BME280;6782;55.904;13.396;2024-03-22T08:31:52;101397.47;;;8.58;85.33
13422;BME280;6782;55.904;13.396;2024-03-22T08:34:39;101385.25;;;8.54;85.62
13422;BME280;6782;55.904;13.396;2024-03-22T08:37:26;101379.16;;;8.43;86.33
13422;BME280;6782;55.904;13.396;2024-03-22T08:40:12;101383.47;;;8.56;85.21
13422;BME280;6782;55.904;13.396;2024-03-22T08:43:00;101386.00;;;8.74;83.86
13422;BME280;6782;55.904;13.396;2024-03-22T08:45:47;101373.75;;;8.73;84.13
13422;BME280;6782;55.904;13.396;2024-03-22T08:48:36;101373.75;;;8.71;84.43
13422;BME280;6782;55.904;13.396;2024-03-22T08:51:22;101366.78;;;8.64;84.94
13422;BME280;6782;55.904;13.396;2024-03-22T08:54:09;101364.16;;;8.63;85.05
13422;BME280;6782;55.904;13.396;2024-03-22T08:56:56;101372.88;;;8.71;84.29
13422;BME280;6782;55.904;13.396;2024-03-22T08:59:43;101360.59;;;8.71;84.36
13422;BME280;6782;55.904;13.396;2024-03-22T09:02:29;101358.06;;;8.59;85.26
13422;BME280;6782;55.904;13.396;2024-03-22T09:05:18;101351.00;;;8.63;84.79
13422;BME280;6782;55.904;13.396;2024-03-22T09:08:05;101363.19;;;8.76;83.26
13422;BME280;6782;55.904;13.396;2024-03-22T09:10:52;101371.09;;;8.77;83.25
13422;BME280;6782;55.904;13.396;2024-03-22T09:13:38;101371.94;;;8.81;83.06
13422;BME280;6782;55.904;13.396;2024-03-22T09:16:26;101357.13;;;8.69;83.62
13422;BME280;6782;55.904;13.396;2024-03-22T09:19:13;101371.94;;;8.86;82.41
13422;BME280;6782;55.904;13.396;2024-03-22T09:22:01;101367.50;;;8.92;81.82
13422;BME280;6782;55.904;13.396;2024-03-22T09:24:48;101370.06;;;8.97;81.34
13422;BME280;6782;55.904;13.396;2024-03-22T09:27:35;101350.00;;;8.88;82.21
13422;BME280;6782;55.904;13.396;2024-03-22T09:30:22;101360.44;;;8.97;81.28
13422;BME280;6782;55.904;13.396;2024-03-22T09:33:08;101371.78;;;9.05;80.80
13422;BME280;6782;55.904;13.396;2024-03-22T09:35:56;101364.78;;;9.06;80.99
13422;BME280;6782;55.904;13.396;2024-03-22T09:38:44;101375.22;;;9.12;80.59
13422;BME280;6782;55.904;13.396;2024-03-22T09:41:32;101385.66;;;9.27;79.35
13422;BME280;6782;55.904;13.396;2024-03-22T09:44:19;101373.41;;;9.24;79.69
13422;BME280;6782;55.904;13.396;2024-03-22T09:47:06;101371.63;;;9.25;80.08
13422;BME280;6782;55.904;13.396;2024-03-22T09:49:55;101375.97;;;9.30;79.89
13422;BME280;6782;55.904;13.396;2024-03-22T09:52:44;101362.78;;;9.33;79.80
13422;BME280;6782;55.904;13.396;2024-03-22T09:55:36;101365.41;;;9.33;80.21
13422;BME280;6782;55.904;13.396;2024-03-22T09:58:26;101359.34;;;9.27;81.17
13422;BME280;6782;55.904;13.396;2024-03-22T10:01:13;101354.88;;;9.33;81.01
13422;BME280;6782;55.904;13.396;2024-03-22T10:04:01;101341.72;;;9.33;81.10
13422;BME280;6782;55.904;13.396;2024-03-22T10:06:47;101346.13;;;9.34;81.41
13422;BME280;6782;55.904;13.396;2024-03-22T10:09:34;101349.59;;;9.39;81.19
13422;BME280;6782;55.904;13.396;2024-03-22T10:12:22;101347.03;;;9.29;82.20
13422;BME280;6782;55.904;13.396;2024-03-22T10:15:11;101347.03;;;9.29;82.50
13422;BME280;6782;55.904;13.396;2024-03-22T10:17:58;101339.13;;;9.30;82.67
13422;BME280;6782;55.904;13.396;2024-03-22T10:20:46;101331.22;;;9.32;82.60
13422;BME280;6782;55.904;13.396;2024-03-22T10:23:32;101333.84;;;9.30;82.89
13422;BME280;6782;55.904;13.396;2024-03-22T10:26:19;101337.34;;;9.32;82.73
13422;BME280;6782;55.904;13.396;2024-03-22T10:29:07;101329.44;;;9.32;82.91
13422;BME280;6782;55.904;13.396;2024-03-22T10:31:55;101326.88;;;9.26;83.53
13422;BME280;6782;55.904;13.396;2024-03-22T10:34:44;101329.44;;;9.37;82.65
13422;BME280;6782;55.904;13.396;2024-03-22T10:37:33;101342.47;;;9.48;81.89
13422;BME280;6782;55.904;13.396;2024-03-22T10:40:21;101339.81;;;9.51;81.77
13422;BME280;6782;55.904;13.396;2024-03-22T10:43:09;101329.28;;;9.52;81.73
13422;BME280;6782;55.904;13.396;2024-03-22T10:46:01;101330.09;;;9.56;81.65
13422;BME280;6782;55.904;13.396;2024-03-22T10:48:49;101334.41;;;9.64;81.27
13422;BME280;6782;55.904;13.396;2024-03-22T10:51:36;101336.09;;;9.71;81.17
13422;BME280;6782;55.904;13.396;2024-03-22T10:54:26;101332.56;;;9.71;81.43
13422;BME280;6782;55.904;13.396;2024-03-22T10:57:15;101315.94;;;9.70;82.05
13422;BME280;6782;55.904;13.396;2024-03-22T11:00:07;101308.88;;;9.71;82.37
13422;BME280;6782;55.904;13.396;2024-03-22T11:02:58;101308.00;;;9.72;82.55
13422;BME280;6782;55.904;13.396;2024-03-22T11:05:45;101302.69;;;9.73;82.88
13422;BME280;6782;55.904;13.396;2024-03-22T11:08:32;101297.47;;;9.72;83.38
13422;BME280;6782;55.904;13.396;2024-03-22T11:11:22;101292.97;;;9.80;83.17
13422;BME280;6782;55.904;13.396;2024-03-22T11:14:09;101282.47;;;9.77;83.61
13422;BME280;6782;55.904;13.396;2024-03-22T11:16:56;101291.13;;;9.86;83.15
13422;BME280;6782;55.904;13.396;2024-03-22T11:19:44;101295.38;;;9.99;82.33
13422;BME280;6782;55.904;13.396;2024-03-22T11:22:30;101288.19;;;10.17;81.11
13422;BME280;6782;55.904;13.396;2024-03-22T11:25:18;101283.88;;;10.05;82.69
13422;BME280;6782;55.904;13.396;2024-03-22T11:28:05;101257.69;;;9.93;84.08
13422;BME280;6782;55.904;13.396;2024-03-22T11:30:53;101254.19;;;9.92;84.62
13422;BME280;6782;55.904;13.396;2024-03-22T11:33:39;101240.25;;;9.86;85.30
13422;BME280;6782;55.904;13.396;2024-03-22T11:36:29;101228.81;;;9.85;85.59
13422;BME280;6782;55.904;13.396;2024-03-22T11:39:15;101226.19;;;9.84;85.79
13422;BME280;6782;55.904;13.396;2024-03-22T11:42:03;101210.47;;;9.78;86.22
13422;BME280;6782;55.904;13.396;2024-03-22T11:44:50;101202.47;;;9.85;85.77
13422;BME280;6782;55.904;13.396;2024-03-22T11:47:38;101213.72;;;9.98;84.50
13422;BME280;6782;55.904;13.396;2024-03-22T11:50:24;101209.41;;;9.92;85.15
13422;BME280;6782;55.904;13.396;2024-03-22T11:53:13;101201.63;;;9.82;86.44
13422;BME280;6782;55.904;13.396;2024-03-22T11:55:59;101197.34;;;9.73;87.13
13422;BME280;6782;55.904;13.396;2024-03-22T11:58:46;101186.06;;;9.64;87.70
13422;BME280;6782;55.904;13.396;2024-03-22T12:01:33;101179.06;;;9.63;87.71
13422;BME280;6782;55.904;13.396;2024-03-22T12:04:22;101177.19;;;9.72;86.70
13422;BME280;6782;55.904;13.396;2024-03-22T12:07:10;101184.09;;;9.79;86.09
13422;BME280;6782;55.904;13.396;2024-03-22T12:09:58;101185.75;;;9.88;85.22
13422;BME280;6782;55.904;13.396;2024-03-22T12:12:45;101182.28;;;9.86;85.36
13422;BME280;6782;55.904;13.396;2024-03-22T12:15:32;101178.78;;;9.85;85.48
13422;BME280;6782;55.904;13.396;2024-03-22T12:18:19;101177.84;;;9.88;85.25
13422;BME280;6782;55.904;13.396;2024-03-22T12:21:07;101173.56;;;9.81;85.75
13422;BME280;6782;55.904;13.396;2024-03-22T12:23:53;101169.16;;;9.83;85.48
13422;BME280;6782;55.904;13.396;2024-03-22T12:26:41;101154.34;;;9.73;86.08
13422;BME280;6782;55.904;13.396;2024-03-22T12:29:28;101153.47;;;9.71;86.27
13422;BME280;6782;55.904;13.396;2024-03-22T12:32:15;101155.28;;;9.70;86.06
13422;BME280;6782;55.904;13.396;2024-03-22T12:35:01;101143.13;;;9.60;86.72
13422;BME280;6782;55.904;13.396;2024-03-22T12:37:48;101129.88;;;9.63;86.30
13422;BME280;6782;55.904;13.396;2024-03-22T12:40:34;101135.19;;;9.62;86.16
13422;BME280;6782;55.904;13.396;2024-03-22T12:43:23;101136.94;;;9.63;85.78
13422;BME280;6782;55.904;13.396;2024-03-22T12:46:09;101136.06;;;9.62;85.38
13422;BME280;6782;55.904;13.396;2024-03-22T12:48:57;101133.59;;;9.49;86.28
13422;BME280;6782;55.904;13.396;2024-03-22T12:51:43;101123.00;;;9.55;85.22
13422;BME280;6782;55.904;13.396;2024-03-22T12:54:30;101131.78;;;9.54;84.88
13422;BME280;6782;55.904;13.396;2024-03-22T12:57:16;101138.72;;;9.59;84.28
13422;BME280;6782;55.904;13.396;2024-03-22T13:00:07;101134.31;;;9.63;83.56
13422;BME280;6782;55.904;13.396;2024-03-22T13:02:58;101137.75;;;9.66;82.93
13422;BME280;6782;55.904;13.396;2024-03-22T13:05:45;101130.75;;;9.64;82.66
13422;BME280;6782;55.904;13.396;2024-03-22T13:08:32;101136.75;;;9.75;81.85
13422;BME280;6782;55.904;13.396;2024-03-22T13:11:19;101126.31;;;9.69;81.84
13422;BME280;6782;55.904;13.396;2024-03-22T13:14:05;101127.31;;;9.60;82.59
13422;BME280;6782;55.904;13.396;2024-03-22T13:16:54;101129.84;;;9.68;81.65
13422;BME280;6782;55.904;13.396;2024-03-22T13:19:42;101133.31;;;9.68;81.41
13422;BME280;6782;55.904;13.396;2024-03-22T13:22:29;101130.69;;;9.68;81.28
13422;BME280;6782;55.904;13.396;2024-03-22T13:25:15;101126.41;;;9.63;81.73
13422;BME280;6782;55.904;13.396;2024-03-22T13:28:03;101132.56;;;9.62;81.54
13422;BME280;6782;55.904;13.396;2024-03-22T13:30:59;101126.44;;;9.60;81.54
13422;BME280;6782;55.904;13.396;2024-03-22T13:33:48;101139.59;;;9.58;81.30
13422;BME280;6782;55.904;13.396;2024-03-22T13:36:34;101143.16;;;9.56;81.50
13422;BME280;6782;55.904;13.396;2024-03-22T13:39:23;101138.78;;;9.55;81.32
13422;BME280;6782;55.904;13.396;2024-03-22T13:42:09;101126.53;;;9.51;81.47
13422;BME280;6782;55.904;13.396;2024-03-22T13:44:58;101136.19;;;9.52;81.68
13422;BME280;6782;55.904;13.396;2024-03-22T13:47:44;101142.09;;;9.69;80.33
13422;BME280;6782;55.904;13.396;2024-03-22T13:50:32;101142.06;;;9.72;80.33
13422;BME280;6782;55.904;13.396;2024-03-22T13:53:18;101164.66;;;9.91;79.39
13422;BME280;6782;55.904;13.396;2024-03-22T13:56:07;101147.84;;;9.98;79.95
13422;BME280;6782;55.904;13.396;2024-03-22T13:58:53;101151.13;;;10.15;79.69
13422;BME280;6782;55.904;13.396;2024-03-22T14:01:40;101154.28;;;10.38;79.32
13422;BME280;6782;55.904;13.396;2024-03-22T14:04:27;101160.00;;;10.64;78.72
13422;BME280;6782;55.904;13.396;2024-03-22T14:07:16;101158.19;;;10.66;80.56
13422;BME280;6782;55.904;13.396;2024-03-22T14:10:02;101149.03;;;10.89;80.95
13422;BME280;6782;55.904;13.396;2024-03-22T14:12:51;101143.56;;;10.98;82.92
13422;BME280;6782;55.904;13.396;2024-03-22T14:15:37;101132.91;;;11.04;85.38
13422;BME280;6782;55.904;13.396;2024-03-22T14:18:25;101105.38;;;11.15;87.29
13422;BME280;6782;55.904;13.396;2024-03-22T14:21:11;101098.44;;;11.11;91.67
13422;BME280;6782;55.904;13.396;2024-03-22T14:24:02;101022.78;;;10.67;100.00
13422;BME280;6782;55.904;13.396;2024-03-22T14:26:50;101018.09;;;10.82;100.00
13422;BME280;6782;55.904;13.396;2024-03-22T14:29:36;100976.19;;;10.68;100.00
13422;BME280;6782;55.904;13.396;2024-03-22T14:32:23;100954.06;;;10.74;100.00
13422;BME280;6782;55.904;13.396;2024-03-22T14:35:10;100909.69;;;10.52;100.00
13422;BME280;6782;55.904;13.396;2024-03-22T14:37:58;100902.41;;;10.65;100.00
13422;BME280;6782;55.904;13.396;2024-03-22T14:40:46;100875.09;;;10.67;100.00